createdAt,value
2023-04-14T00:00:03.105Z,1008.54
2023-04-14T00:05:03.098Z,1008.61
2023-04-14T00:10:03.899Z,1008.76
2023-04-14T00:15:04.284Z,1008.81
2023-04-14T00:20:03.350Z,1008.83
2023-04-14T00:25:03.016Z,1008.82
2023-04-14T00:30:03.764Z,1008.78
2023-04-14T00:35:03.126Z,1008.79
2023-04-14T00:40:03.305Z,1008.8
2023-04-14T00:45:02.971Z,1008.73
2023-04-14T00:50:03.477Z,1008.58
2023-04-14T00:55:03.185Z,1008.56
2023-04-14T01:00:02.987Z,1008.78
2023-04-14T01:05:04.237Z,1008.76
2023-04-14T01:10:03.085Z,1008.55
2023-04-14T01:15:02.996Z,1008.59
2023-04-14T01:20:03.073Z,1008.78
2023-04-14T01:25:03.061Z,1008.75
2023-04-14T01:30:04.015Z,1008.87
2023-04-14T01:35:03.087Z,1008.87
2023-04-14T01:40:03.081Z,1008.87
2023-04-14T01:45:03.050Z,1008.92
2023-04-14T01:50:03.166Z,1008.89
2023-04-14T01:55:03.085Z,1008.89
2023-04-14T02:00:03.123Z,1008.81
2023-04-14T02:05:02.957Z,1008.77
2023-04-14T02:10:03.233Z,1008.63
2023-04-14T02:15:03.043Z,1008.63
2023-04-14T02:20:03.125Z,1008.67
2023-04-14T02:25:04.020Z,1008.7
2023-04-14T02:30:03.047Z,1008.82
2023-04-14T02:35:02.996Z,1008.87
2023-04-14T02:40:03.068Z,1008.88
2023-04-14T02:45:03.011Z,1008.94
2023-04-14T02:50:04.106Z,1008.89
2023-04-14T02:55:03.086Z,1008.98
2023-04-14T03:00:03.090Z,1009.07
2023-04-14T03:05:03.070Z,1009.03
2023-04-14T03:10:03.116Z,1009.07
2023-04-14T03:15:03.057Z,1009.1
2023-04-14T03:20:03.129Z,1009.1
2023-04-14T03:25:03.007Z,1009.13
2023-04-14T03:30:03.116Z,1009.18
2023-04-14T03:35:02.963Z,1009.16
2023-04-14T03:40:03.211Z,1009.14
2023-04-14T03:45:03.147Z,1009.14
2023-04-14T03:50:03.117Z,1009.12
2023-04-14T03:55:02.950Z,1009.04
2023-04-14T04:00:03.061Z,1009.09
2023-04-14T04:05:03.110Z,1009.11
2023-04-14T04:10:03.251Z,1009.09
2023-04-14T04:15:04.826Z,1009.1
2023-04-14T04:20:03.170Z,1009.03
2023-04-14T04:25:03.006Z,1009.05
2023-04-14T04:30:03.223Z,1009.06
2023-04-14T04:35:02.995Z,1009.08
2023-04-14T04:40:02.977Z,1009.1
2023-04-14T04:45:02.947Z,1009.03
2023-04-14T04:50:03.265Z,1009.09
2023-04-14T04:55:03.120Z,1009.11
2023-04-14T05:00:03.026Z,1009.11
2023-04-14T05:05:02.946Z,1009.11
2023-04-14T05:10:03.035Z,1009.1
2023-04-14T05:15:02.977Z,1009.11
2023-04-14T05:20:03.108Z,1009.05
2023-04-14T05:25:02.959Z,1009.07
2023-04-14T05:30:03.144Z,1009.08
2023-04-14T05:35:02.949Z,1009.03
2023-04-14T05:40:03.030Z,1009.03
2023-04-14T05:45:02.972Z,1009.06
2023-04-14T05:50:03.014Z,1008.98
2023-04-14T05:55:03.063Z,1008.94
2023-04-14T06:00:03.217Z,1008.82
2023-04-14T06:05:03.236Z,1008.78
2023-04-14T06:10:03.162Z,1008.77
2023-04-14T06:15:02.997Z,1008.66
2023-04-14T06:20:03.179Z,1008.7
2023-04-14T06:25:03.000Z,1008.65
2023-04-14T06:30:03.036Z,1008.68
2023-04-14T06:35:02.989Z,1008.69
2023-04-14T06:40:03.183Z,1008.74
2023-04-14T06:45:02.922Z,1008.76
2023-04-14T06:50:03.259Z,1008.76
2023-04-14T06:55:02.995Z,1008.79
2023-04-14T07:00:02.937Z,1008.77
2023-04-14T07:05:07.973Z,1008.79
2023-04-14T07:10:03.114Z,1008.94
2023-04-14T07:15:02.952Z,1009.0
2023-04-14T07:20:03.026Z,1008.87
2023-04-14T07:25:03.098Z,1008.8
2023-04-14T07:30:03.151Z,1008.79
2023-04-14T07:35:02.971Z,1008.81
2023-04-14T07:40:03.035Z,1008.82
2023-04-14T07:45:02.991Z,1008.81
2023-04-14T07:50:03.149Z,1008.88
2023-04-14T07:55:02.913Z,1009.07
2023-04-14T08:00:03.159Z,1009.14
2023-04-14T08:05:02.884Z,1009.14
2023-04-14T08:10:03.148Z,1009.13
2023-04-14T08:15:02.995Z,1009.17
2023-04-14T08:20:03.127Z,1009.21
2023-04-14T08:25:02.939Z,1009.25
2023-04-14T08:30:03.078Z,1009.23
2023-04-14T08:35:34.951Z,1009.27
2023-04-14T08:40:03.167Z,1009.34
2023-04-14T08:45:02.980Z,1009.43
2023-04-14T08:50:03.042Z,1009.52
2023-04-14T08:55:02.998Z,1009.61
2023-04-14T09:00:03.190Z,1009.59
2023-04-14T09:05:03.203Z,1009.66
2023-04-14T09:10:03.203Z,1009.69
2023-04-14T09:15:02.944Z,1009.79
2023-04-14T09:20:34.290Z,1009.85
2023-04-14T09:25:03.089Z,1009.89
2023-04-14T09:30:03.049Z,1010.01
2023-04-14T09:35:02.958Z,1010.06
2023-04-14T09:40:03.019Z,1010.12
2023-04-14T09:45:03.018Z,1010.2
2023-04-14T09:50:03.071Z,1010.25
2023-04-14T09:55:02.912Z,1010.36
2023-04-14T10:05:03.028Z,1010.49
2023-04-14T10:10:03.185Z,1010.57
2023-04-14T10:15:02.978Z,1010.64
2023-04-14T10:20:02.968Z,1010.68
2023-04-14T10:25:02.958Z,1010.7
2023-04-14T10:30:03.044Z,1010.75
2023-04-14T10:35:02.994Z,1010.74
2023-04-14T10:40:03.061Z,1010.73
2023-04-14T10:45:02.969Z,1010.77
2023-04-14T10:50:03.062Z,1010.83
2023-04-14T10:55:02.951Z,1010.84
2023-04-14T11:00:03.104Z,1010.87
2023-04-14T11:05:03.004Z,1010.82
2023-04-14T11:10:03.062Z,1010.77
2023-04-14T11:15:02.926Z,1010.81
2023-04-14T11:20:03.227Z,1010.81
2023-04-14T11:25:02.949Z,1010.86
2023-04-14T11:30:03.047Z,1010.93
2023-04-14T11:35:02.923Z,1010.99
2023-04-14T11:40:03.191Z,1011.03
2023-04-14T11:45:03.047Z,1011.05
2023-04-14T11:50:03.139Z,1011.05
2023-04-14T11:55:03.083Z,1011.08
2023-04-14T12:00:03.046Z,1011.09
2023-04-14T12:05:03.140Z,1011.18
2023-04-14T12:10:03.088Z,1011.22
2023-04-14T12:15:03.078Z,1011.23
2023-04-14T12:20:03.088Z,1011.24
2023-04-14T12:25:03.107Z,1011.26
2023-04-14T12:30:03.797Z,1011.34
2023-04-14T12:35:02.979Z,1011.32
2023-04-14T12:40:03.062Z,1011.27
2023-04-14T12:45:03.000Z,1011.32
2023-04-14T12:50:03.042Z,1011.32
2023-04-14T12:55:04.358Z,1011.29
2023-04-14T13:00:03.126Z,1011.39
2023-04-14T13:05:02.989Z,1011.43
2023-04-14T13:10:03.014Z,1011.43
2023-04-14T13:15:04.160Z,1011.47
2023-04-14T13:20:03.161Z,1011.48
2023-04-14T13:25:03.030Z,1011.54
2023-04-14T13:30:03.195Z,1011.5
2023-04-14T13:35:02.987Z,1011.51
2023-04-14T13:40:03.077Z,1011.51
2023-04-14T13:45:03.036Z,1011.48
2023-04-14T13:50:03.106Z,1011.43
2023-04-14T13:55:03.028Z,1011.45
2023-04-14T14:00:03.108Z,1011.49
2023-04-14T14:05:03.019Z,1011.51
2023-04-14T14:10:03.170Z,1011.44
2023-04-14T14:15:03.126Z,1011.45
2023-04-14T14:20:03.032Z,1011.46
2023-04-14T14:25:18.246Z,1011.43
2023-04-14T14:30:03.141Z,1011.47
2023-04-14T14:35:03.113Z,1011.36
2023-04-14T14:40:03.068Z,1011.28
2023-04-14T14:45:02.994Z,1011.35
2023-04-14T14:50:05.208Z,1011.35
2023-04-14T14:55:03.033Z,1011.27
2023-04-14T15:00:03.159Z,1011.26
2023-04-14T15:05:02.980Z,1011.2
2023-04-14T15:10:03.002Z,1011.16
2023-04-14T15:15:03.066Z,1011.11
2023-04-14T15:20:03.168Z,1011.03
2023-04-14T15:25:03.054Z,1011.02
2023-04-14T15:30:03.395Z,1010.98
2023-04-14T15:35:03.118Z,1010.96
2023-04-14T15:40:03.155Z,1010.96
2023-04-14T15:45:02.986Z,1010.91
2023-04-14T15:50:09.402Z,1010.84
2023-04-14T15:55:03.041Z,1010.84
2023-04-14T16:00:03.231Z,1010.79
2023-04-14T16:05:04.139Z,1010.72
2023-04-14T16:10:03.123Z,1010.71
2023-04-14T16:15:03.005Z,1010.64
2023-04-14T16:20:03.362Z,1010.65
2023-04-14T16:25:03.013Z,1010.61
2023-04-14T16:30:03.120Z,1010.52
2023-04-14T16:35:03.030Z,1010.47
2023-04-14T16:40:03.169Z,1010.37
2023-04-14T16:45:03.089Z,1010.3
2023-04-14T16:50:03.140Z,1010.22
2023-04-14T16:55:02.909Z,1010.12
2023-04-14T17:00:03.183Z,1010.14
2023-04-14T17:05:03.204Z,1010.05
2023-04-14T17:10:03.049Z,1010.01
2023-04-14T17:15:02.960Z,1009.93
2023-04-14T17:20:03.010Z,1009.84
2023-04-14T17:25:02.927Z,1009.75
2023-04-14T17:30:03.375Z,1009.7
2023-04-14T17:35:02.997Z,1009.61
2023-04-14T17:40:03.177Z,1009.61
2023-04-14T17:45:03.087Z,1009.53
2023-04-14T17:50:03.006Z,1009.59
2023-04-14T17:55:03.210Z,1009.57
2023-04-14T18:00:03.072Z,1009.49
2023-04-14T18:05:03.081Z,1009.47
2023-04-14T18:10:03.239Z,1009.49
2023-04-14T18:15:03.031Z,1009.51
2023-04-14T18:20:03.111Z,1009.46
2023-04-14T18:25:03.063Z,1009.46
2023-04-14T18:30:03.159Z,1009.4
2023-04-14T18:35:02.962Z,1009.4
2023-04-14T18:40:03.142Z,1009.34
2023-04-14T18:45:03.026Z,1009.37
2023-04-14T18:50:03.014Z,1009.36
2023-04-14T18:55:03.059Z,1009.39
2023-04-14T19:00:03.053Z,1009.41
2023-04-14T19:05:03.120Z,1009.45
2023-04-14T19:10:03.130Z,1009.5
2023-04-14T19:15:02.982Z,1009.57
2023-04-14T19:20:03.254Z,1009.54
2023-04-14T19:25:02.976Z,1009.53
2023-04-14T19:30:03.092Z,1009.6
2023-04-14T19:35:03.015Z,1009.56
2023-04-14T19:40:03.054Z,1009.57
2023-04-14T19:45:03.012Z,1009.63
2023-04-14T19:50:03.148Z,1009.69
2023-04-14T19:55:03.013Z,1009.68
2023-04-14T20:00:03.010Z,1009.69
2023-04-14T20:05:03.078Z,1009.72
2023-04-14T20:10:03.052Z,1009.76
2023-04-14T20:15:03.097Z,1009.82
2023-04-14T20:20:03.028Z,1009.81
2023-04-14T20:25:03.084Z,1009.84
2023-04-14T20:30:03.129Z,1009.85
2023-04-14T20:35:02.928Z,1009.88
2023-04-14T20:40:03.130Z,1009.91
2023-04-14T20:45:02.999Z,1009.92
2023-04-14T20:50:03.111Z,1009.98
2023-04-14T20:55:02.948Z,1009.99
2023-04-14T21:00:03.117Z,1010.04
2023-04-14T21:05:03.024Z,1010.09
2023-04-14T21:10:03.001Z,1010.1
2023-04-14T21:15:28.613Z,1010.17
2023-04-14T21:20:03.034Z,1010.22
2023-04-14T21:25:03.022Z,1010.19
2023-04-14T21:30:04.160Z,1010.18
2023-04-14T21:35:02.982Z,1010.24
2023-04-14T21:40:03.038Z,1010.16
2023-04-14T21:45:02.968Z,1010.25
2023-04-14T21:50:03.040Z,1010.4
2023-04-14T21:55:03.149Z,1010.44
2023-04-14T22:00:03.248Z,1010.45
2023-04-14T22:05:03.015Z,1010.5
2023-04-14T22:10:03.065Z,1010.6
2023-04-14T22:15:03.037Z,1010.63
2023-04-14T22:20:03.056Z,1010.66
2023-04-14T22:25:03.062Z,1010.68
2023-04-14T22:30:03.160Z,1010.7
2023-04-14T22:35:02.960Z,1010.77
2023-04-14T22:40:03.016Z,1010.82
2023-04-14T22:45:02.964Z,1010.91
2023-04-14T22:50:03.173Z,1010.99
2023-04-14T22:55:02.934Z,1010.98
2023-04-14T23:00:03.029Z,1010.98
2023-04-14T23:05:03.100Z,1010.99
2023-04-14T23:10:03.165Z,1011.05
2023-04-14T23:15:02.993Z,1011.08
2023-04-14T23:20:03.137Z,1011.06
2023-04-14T23:25:02.968Z,1011.1
2023-04-14T23:30:03.111Z,1011.18
2023-04-14T23:35:03.000Z,1011.26
2023-04-14T23:40:03.118Z,1011.47
2023-04-14T23:45:03.228Z,1011.58
2023-04-14T23:50:03.304Z,1011.63
2023-04-14T23:55:03.041Z,1011.66
